Aviation Digital Data Service (ADDS)

Output produced by METARs form (1911 UTC 25 June 2017)
found at http://www.aviationweather.gov/adds/metars/
 
LECO 251900Z 35004KT 310V030 CAVOK 23/16 Q1012 NOSIG
TAF LECO 251400Z 2515/2615 03008KT CAVOK TX23/2515Z TN16/2605Z 
     PROB30 
     TEMPO 2515/2518 33012KT FEW040TCU 
     PROB30 
     TEMPO 2518/2603 SHRA TS SCT030CB 
     TEMPO 2612/2615 33010KT
       
LEAB 251900Z 15012KT 120V180 CAVOK 25/12 Q1014 NOSIG
TAF LEAB 251700Z 2518/2603 VRB05KT CAVOK 
     PROB40 
     TEMPO 2518/2521 23010KT FEW045CB
       
LERI 251800Z 05012KT CAVOK 29/17 Q1012 NOSIG
TAF LERI 251400Z 2515/2524 07010KT CAVOK 
     BECMG 2521/2524 VRB03KT
       
LEAL 251900Z 07009KT 9999 FEW025 27/19 Q1012 NOSIG
TAF LEAL 251700Z 2518/2618 07010KT 9999 FEW030 TX31/2612Z TN22/2606Z 
     BECMG 2520/2522 VRB04KT 
     TEMPO 2606/2608 24008KT 
     BECMG 2608/2611 13010KT
       
LEAM 251900Z 07019KT CAVOK 32/14 Q1009
TAF LEAM 251400Z 2515/2615 07013KT CAVOK TX34/2518Z TN23/2605Z 
     PROB30 
     TEMPO 2515/2519 08015G27KT 
     BECMG 2519/2521 35010KT 
     BECMG 2601/2603 22008KT
       
TAF LEGA 251400Z 2515/2524 18010KT 9999 FEW080 
     PROB40 
     TEMPO 2517/2520 31008KT 
     BECMG 2521/2524 VRB03KT
       
LEAS 251900Z 08009KT 9999 SCT012 BKN020 19/17 Q1014 TEMPO BKN030TCU
TAF AMD LEAS 251648Z 2516/2615 10009KT 9999 SCT014 BKN024 TX22/2613Z TN17/2605Z 
     TEMPO 2516/2609 BKN012 
     PROB30 
     TEMPO 2517/2520 SHRA TS FEW035TCU SCT040CB 
     TEMPO 2520/2603 3000 SHRA TS SCT035TCU SCT040CB 
     TEMPO 2602/2609 3000 -RA BR BKN008 
     PROB40 
     TEMPO 2603/2606 1400 BCFG BKN003 
     PROB40 
     TEMPO 2612/2615 04010KT
       
LEMD 251900Z 34005KT 260V070 9999 FEW070CB 21/15 Q1015 NOSIG
TAF LEMD 251700Z 2518/2624 VRB05KT CAVOK TX35/2615Z TN17/2605Z 
     TEMPO 2518/2603 VRB15G28KT 3000 TS SHRA SCT050CB 
     BECMG 2610/2612 22012KT 
     PROB40 
     TEMPO 2612/2618 22015G25KT
       
LEBL 251900Z 14004KT 100V170 9999 FEW025 25/21 Q1014 NOSIG
TAF LEBL 251700Z 2518/2618 16007KT 9999 SCT030 TX29/2612Z TN22/2606Z 
     PROB30 
     TEMPO 2518/2519 09008KT 
     BECMG 2519/2521 VRB03KT 
     TEMPO 2602/2609 33010KT 
     BECMG 2609/2611 18010KT 
     PROB30 
     TEMPO 2604/2610 FEW030 SCT080CB
       
LEBB 251900Z 12003KT 9999 SCT027 BKN032 21/18 Q1015 TEMPO SHRA SCT035CB
TAF LEBB 251700Z 2518/2618 13006KT 9999 SCT020 BKN035 TX26/2613Z TN18/2606Z 
     TEMPO 2518/2610 SCT035TCU 
     PROB30 2518/2521 SHRA TS SCT035CB 
     TEMPO 2521/2610 4000 SHRA TS SCT040CB 
     PROB30 
     TEMPO 2521/2603 2500 SHRA TS BKN030CB 
     BECMG 2611/2613 32010KT
       
LEBG 251900Z AUTO 05005KT 020V100 CAVOK 19/15 Q1016 RETS
TAF COR LEBG 251801Z 2518/2603 VRB05KT CAVOK 
     TEMPO 2518/2520 01010KT 
     TEMPO 2521/2603 SHRA SCT040TCU 
     TEMPO 2518/2603 VRB15G30KT 3000 TS SHRA SCT040CB
       
LEBA 251900Z AUTO 35011KT CAVOK 30/13 Q1009
TAF AMD LEBA 251804Z 2518/2603 34012KT CAVOK 
     TEMPO 2518/2520 33015G25KT 
     BECMG 2520/2522 VRB03KT
       
LEVS 251900Z 30008KT 270V330 9999 FEW035 SCT055 19/15 Q1015
TAF LEVS 251700Z 2518/2603 VRB05KT CAVOK 
     TEMPO 2518/2603 VRB15G28KT 3000 TS SHRA SCT045CB
       
GCFV 251900Z 04007KT 350V070 9000 NSC 25/21 Q1011
TAF GCFV 251400Z 2515/2615 04014KT CAVOK TX30/2515Z TN23/2605Z 
     PROB40 
     TEMPO 2520/2609 33007KT
       
LEGT 251800Z 24014G24KT 9999 -SHRA FEW020 SCT045CB 20/15 Q1016
TAF LEGT 251700Z 2518/2603 VRB05KT CAVOK 
     TEMPO 2518/2603 VRB15G28KT 3000 TS SHRA SCT045CB
       
LEGE 251900Z 21004KT 190V250 9999 FEW020 23/20 Q1014
TAF LEGE 251700Z 2518/2618 18010KT 9999 FEW030 SCT060 TX34/2613Z TN20/2606Z 
     TEMPO 2519/2609 VRB04KT 
     PROB30 
     TEMPO 2605/2614 SCT030 SCT080CB
       
GCLP 251900Z 02021KT 9999 FEW025 25/21 Q1012 NOSIG
TAF GCLP 251400Z 2515/2615 01025KT CAVOK TX30/2515Z TN23/2605Z 
     PROB30 
     TEMPO 2515/2601 01025G35KT
       
LEGR 251900Z 26006KT 9999 FEW050 FEW060TCU 32/15 Q1012
TAF AMD LEGR 251458Z 2515/2615 VRB05KT 9999 FEW080 TX38/2615Z TN18/2605Z 
     PROB40 
     TEMPO 2515/2518 4000 SHRA FEW050CB 
     PROB40 
     TEMPO 2515/2518 4000 TS SCT040CB
       
GCHI 251900Z AUTO 35022KT 9999 FEW011/// 24/20 Q1013
TAF GCHI 251400Z 2515/2615 35017KT 9999 FEW015 TX26/2515Z TN22/2605Z
       
LEIB 251900Z 07011KT 040V100 CAVOK 26/21 Q1013 NOSIG
TAF LEIB 251400Z 2515/2615 07011KT 9999 FEW020 TX30/2612Z TN21/2605Z
       
LEJR 251900Z 33010KT CAVOK 31/11 Q1011
TAF LEJR 251700Z 2518/2618 30012KT CAVOK TX33/2614Z TN19/2605Z 
     TEMPO 2521/2524 VRB04KT 
     BECMG 2523/2601 21006KT 
     BECMG 2606/2608 29010KT
       
GCGM 251900Z AUTO 00000KT 9999 NCD 27/19 Q1013 RMK R09/VRB01KT ARP/00000KT
GCLA 251900Z 02012KT 350V050 9999 FEW018 23/20 Q1014
TAF GCLA 251400Z 2515/2615 02012KT 9999 FEW015 TX27/2515Z TN21/2605Z 
     PROB40 
     TEMPO 2521/2608 32006KT
       
GCRR 251900Z 01018KT 330V040 9999 -RA SCT030 26/20 Q1011
TAF AMD GCRR 251653Z 2516/2615 01015KT CAVOK TX31/2516Z TN22/2605Z 
     PROB30 
     TEMPO 2516/2523 VRB05KT
       
LELN 251900Z 02003KT 9999 SCT055 21/12 Q1014
TAF LELN 251700Z 2518/2603 VRB05KT CAVOK 
     TEMPO 2518/2603 SHRA SCT040TCU 
     PROB40 
     TEMPO 2518/2603 VRB15G30KT 3000 TS SHRA SCT040CB
       
LEMG 251900Z 16005KT 120V200 9999 FEW070 28/16 Q1011 NOSIG
TAF LEMG 251700Z 2518/2618 13010KT 9999 FEW050 TX31/2615Z TN22/2605Z 
     BECMG 2518/2521 VRB02KT 
     BECMG 2606/2608 13010KT
       
GEML 251900Z AUTO 36004KT 300V030 9999 NCD 26/24 Q1010
TAF AMD GEML 251801Z 2518/2615 08008KT 9999 FEW010 TX30/2613Z TN23/2605Z 
     TEMPO 2518/2520 VRB04KT 
     TEMPO 2518/2522 4000 TSRA SCT040CB 
     BECMG 2521/2524 27011KT
       
LEMH 251900Z 09006KT CAVOK 25/21 Q1015
TAF LEMH 251400Z 2515/2615 08008KT 9999 FEW018 TX31/2612Z TN21/2605Z
       
LEMO 251900Z 32008KT CAVOK 30/12 Q1011 NOSIG
TAF LEMO 251700Z 2518/2603 31010KT CAVOK 
     BECMG 2522/2601 24010KT
       
LEPP 251900Z 28003KT 9999 -SHRA FEW035TCU 23/18 Q1015
TAF AMD LEPP 251516Z 2515/2615 VRB06KT 9999 FEW040 TX30/2614Z TN17/2605Z 
     TEMPO 2515/2521 20010KT SCT035TCU 
     PROB40 
     TEMPO 2515/2521 SHRA TS SCT030CB 
     TEMPO 2521/2609 4000 SHRA TS SCT025TCU SCT030CB 
     PROB30 
     TEMPO 2521/2607 VRB15G25KT 2000 +SHRA TS BKN025CB 
     PROB30 
     TEMPO 2609/2612 18010KT SHRA TS SCT030CB
       
LERS 251900Z 13004KT 070V190 9999 FEW035 26/21 Q1014
TAF LERS 251400Z 2515/2615 14008KT 9999 SCT025 TX32/2613Z TN21/2605Z 
     BECMG 2519/2521 VRB04KT
       
LERT 251900Z 02004KT 340V050 9999 SCT040 30/12 Q1010 NOSIG
TAF LERT 251700Z 2518/2603 32012KT CAVOK 
     PROB40 
     TEMPO 2522/2603 VRB03KT
       
LESA 251900Z 28003KT 250V310 9999 FEW040TCU 20/16 Q1014
TAF LESA 251700Z 2518/2618 VRB05KT CAVOK TX29/2613Z TN12/2605Z 
     PROB30 
     TEMPO 2518/2521 VRB15G30KT 3000 TS SHRA SCT040CB 
     BECMG 2611/2613 22010KT
       
LESO 251900Z 04004KT 010V070 9999 FEW018 23/19 Q1014
TAF LESO 251700Z 2518/2618 VRB06KT 9999 FEW030 SCT045 TX26/2611Z TN18/2606Z 
     TEMPO 2518/2615 SCT040TCU 
     PROB40 2518/2615 3000 TSRA SCT035TCU SCT040CB 
     TEMPO 2611/2618 29010KT
       
LEXJ 251900Z 09005KT 050V120 9999 FEW025 BKN036 21/17 Q1014
TAF LEXJ 251400Z 2515/2615 08009KT 9999 BKN030 TX23/2613Z TN18/2606Z 
     PROB30 2515/2520 SHRA TS FEW035TCU SCT045CB 
     TEMPO 2520/2602 3000 SHRA TS SCT035TCU SCT040CB 
     PROB30 
     TEMPO 2602/2607 -SHRA TS FEW040CB 
     TEMPO 2610/2615 32010KT
       
LEST 251900Z 03004KT 350V070 9999 FEW044 23/17 Q1013 NOSIG
TAF LEST 251700Z 2518/2618 05008KT 9999 FEW035 TX24/2614Z TN15/2606Z 
     PROB40 
     TEMPO 2518/2524 SCT040TCU 
     PROB30 
     TEMPO 2518/2524 SHRA TS SCT030CB 
     PROB40 
     TEMPO 2603/2606 4000 BR 
     PROB30 
     TEMPO 2603/2606 0800 BCFG 
     TEMPO 2613/2618 26010KT
       
LESU 251900Z 10003KT 040V190 9999 FEW030 FEW050TCU SCT080 26/16 Q1017
TAF LESU 251400Z 2515/2615 22012KT 9999 SCT035 SCT080 TX29/2614Z TN15/2605Z 
     TEMPO 2515/2518 22014G26KT 
     BECMG 2518/2520 VRB05KT 
     PROB30 
     TEMPO 2515/2606 4000 TSRA SCT035 SCT070CB 
     PROB40 
     TEMPO 2606/2615 4000 TSRA SCT035 SCT070CB
       
LEZL 251900Z 35007KT 320V030 CAVOK 30/11 Q1010 NOSIG
TAF AMD LEZL 251517Z 2515/2615 31015KT CAVOK TX39/2515Z TN21/2605Z 
     PROB40 
     TEMPO 2515/2519 31015G25KT 
     BECMG 2600/2602 22006KT
       
LEBZ 251900Z 00000KT CAVOK 24/17 Q1011
TAF LEBZ 251700Z 2518/2618 28007KT CAVOK TX32/2614Z TN16/2605Z
       
GCXO 251900Z 28014KT 0900 R30/1900N R12/1400U FG BKN000 20/19 Q1016 NOSIG
TAF AMD GCXO 251838Z 2518/2615 31011KT CAVOK TX28/2614Z TN19/2605Z 
     TEMPO 2606/2614 15005KT 
     PROB40 
     TEMPO 2518/2611 2500 BCFG BKN004 
     PROB30 
     TEMPO 2518/2609 0900 FG BKN001
       
GCTS 251900Z VRB01KT CAVOK 25/20 Q1012 NOSIG
TAF AMD GCTS 251712Z 2517/2615 08018KT CAVOK TX29/2614Z TN22/2605Z 
     PROB30 
     TEMPO 2517/2519 26012KT 
     BECMG 2517/2520 05008KT 
     BECMG 2610/2613 09024KT
       
LETO 251900Z VRB02KT 9999 FEW035CB SCT060 21/16 Q1015 NOSIG
TAF LETO 251700Z 2518/2618 VRB05KT CAVOK TX34/2615Z TN16/2605Z 
     TEMPO 2518/2603 VRB15G28KT 3000 TS SHRA SCT050CB 
     BECMG 2610/2612 22012KT 
     PROB40 
     TEMPO 2612/2618 22015G25KT
       
LEVC 251900Z 08005KT 030V110 9999 FEW025 26/20 Q1014 NOSIG
TAF LEVC 251700Z 2518/2618 08010KT 9999 FEW030 TX32/2612Z TN22/2606Z 
     BECMG 2518/2520 VRB04KT 
     BECMG 2610/2612 10010KT 
     PROB30 
     TEMPO 2520/2605 FEW030 SCT080CB
       
LEVD 251900Z 05007KT 9999 FEW045 25/08 Q1014
TAF LEVD 251700Z 2518/2618 VRB05KT CAVOK TX30/2615Z TN12/2605Z 
     TEMPO 2518/2522 VRB15G30KT 3000 TS SHRA SCT040CB 
     BECMG 2611/2613 23010KT
       
LEVX 251900Z VRB01KT 9999 FEW030TCU 22/16 Q1012 NOSIG
TAF LEVX 251700Z 2518/2618 28010KT 9999 FEW025 TX26/2614Z TN16/2606Z 
     BECMG 2519/2522 18006KT 
     PROB40 
     TEMPO 2518/2524 SCT030TCU 
     PROB30 
     TEMPO 2518/2524 -SHRA TS SCT030CB 
     PROB30 
     TEMPO 2604/2606 0800 BCFG 
     TEMPO 2613/2618 26010KT
       
LEVT 251900Z VRB02KT 8000 TS SHRA FEW020 SCT050CB 19/17 Q1016
TAF LEVT 251700Z 2518/2618 VRB06KT 9999 FEW030 SCT045 TX28/2614Z TN14/2606Z 
     PROB40 2518/2521 SHRA TS FEW035TCU SCT040CB 
     TEMPO 2521/2609 3000 TSRA FEW030TCU SCT035CB 
     PROB30 
     TEMPO 2522/2604 VRB15G25KT 1400 +SHRA TS BKN030CB 
     PROB30 
     TEMPO 2609/2612 22010KT SHRA SCT030TCU 
     BECMG 2613/2616 01012KT
       
LEZG 251900Z 23004KT 150V320 7000 TSRA SCT035CB SCT060 BKN080 24/21 Q1014
TAF LEZG 251700Z 2518/2618 10008KT 9999 FEW050 SCT080 TX34/2614Z TN23/2606Z 
     PROB40 
     TEMPO 2518/2608 VRB12G24KT 4000 TSRA SCT050 SCT080CB 
     PROB30 
     TEMPO 2608/2618 TSRA SCT050 SCT080CB